Time;durP1;ratioP1;P1;durP2;ratioP2;P2;SDS_P1;SDS_P2;PMS_P1;PMS_P2;Temp;Humidity;BMP_temperature;BMP_pressure;BME280_temperature;BME280_humidity;BME280_pressure;Samples;Min_cycle;Max_cycle;Signal;HPM_P1;HPM_P2
2023/01/06 00:00:36;;;;;;;3.70;2.45;;;;;;;4.48;100.00;98293.09;1731034;82;21012;-75
2023/01/06 00:03:05;;;;;;;3.45;1.85;;;;;;;4.54;100.00;98292.69;1731026;82;21095;-78
2023/01/06 00:05:32;;;;;;;5.40;1.70;;;;;;;4.55;100.00;98303.71;1701520;82;20988;-76
2023/01/06 00:07:59;;;;;;;2.40;1.75;;;;;;;4.58;100.00;98289.81;1731154;82;21027;-78
2023/01/06 00:10:26;;;;;;;5.97;2.25;;;;;;;4.55;100.00;98307.73;1731029;82;21165;-76
2023/01/06 00:12:52;;;;;;;2.70;1.40;;;;;;;4.53;100.00;98301.80;1731067;82;21830;-78
2023/01/06 00:15:19;;;;;;;4.33;1.60;;;;;;;4.52;100.00;98310.87;1731089;82;20996;-78
2023/01/06 00:17:46;;;;;;;2.70;1.50;;;;;;;4.53;100.00;98307.98;1731152;82;21031;-78
2023/01/06 00:20:14;;;;;;;2.45;1.12;;;;;;;4.50;100.00;98299.03;1731009;82;21079;-76
2023/01/06 00:22:41;;;;;;;4.60;2.00;;;;;;;4.50;100.00;98327.73;1731204;82;21198;-76
2023/01/06 00:25:09;;;;;;;4.45;1.70;;;;;;;4.45;100.00;98333.82;1731050;82;21429;-76
2023/01/06 00:27:37;;;;;;;3.45;1.47;;;;;;;4.44;100.00;98331.34;1731151;82;22141;-76
2023/01/06 00:30:06;;;;;;;3.12;1.65;;;;;;;4.42;100.00;98349.02;1731308;82;21448;-78
2023/01/06 00:32:33;;;;;;;2.15;1.72;;;;;;;4.39;100.00;98352.18;1731362;82;21524;-76
2023/01/06 00:35:00;;;;;;;4.78;1.55;;;;;;;4.40;100.00;98348.44;1731154;82;21075;-78
2023/01/06 00:37:27;;;;;;;3.55;1.30;;;;;;;4.38;100.00;98347.05;1730811;82;21488;-75
2023/01/06 00:39:54;;;;;;;2.87;2.00;;;;;;;4.39;100.00;98355.39;1731121;82;21028;-76
2023/01/06 00:42:21;;;;;;;3.15;1.80;;;;;;;4.39;100.00;98348.68;1731066;82;20996;-76
2023/01/06 00:44:48;;;;;;;3.25;1.25;;;;;;;4.38;100.00;98362.63;1730811;82;21003;-76
2023/01/06 00:47:15;;;;;;;4.12;2.17;;;;;;;4.38;100.00;98359.94;1731197;82;21158;-78
2023/01/06 00:49:42;;;;;;;4.58;1.42;;;;;;;4.36;100.00;98374.61;1730732;82;21111;-78
2023/01/06 00:52:10;;;;;;;3.62;1.87;;;;;;;4.36;99.32;98370.59;1731053;82;20992;-78
2023/01/06 00:54:37;;;;;;;4.58;1.60;;;;;;;4.40;100.00;98368.56;1751152;81;21288;-76
2023/01/06 00:57:06;;;;;;;3.47;2.10;;;;;;;4.39;100.00;98375.52;1752807;81;21026;-76
2023/01/06 00:59:32;;;;;;;4.05;1.70;;;;;;;4.42;100.00;98381.22;1751497;81;21158;-78
2023/01/06 01:01:59;;;;;;;6.22;1.95;;;;;;;4.42;100.00;98383.09;1751681;81;20993;-78
2023/01/06 01:04:27;;;;;;;5.40;2.20;;;;;;;4.45;100.00;98388.83;1751467;81;20962;-78
2023/01/06 01:06:54;;;;;;;6.47;2.20;;;;;;;4.43;100.00;98382.85;1751688;81;21042;-78
2023/01/06 01:09:25;;;;;;;5.10;2.20;;;;;;;4.45;100.00;98400.91;1751593;81;21014;-78
2023/01/06 01:14:46;;;;;;;4.28;2.02;;;;;;;4.45;99.89;98404.94;1751367;81;20985;-76
2023/01/06 01:17:25;;;;;;;4.28;1.70;;;;;;;4.44;100.00;98404.64;1723927;81;21081;-78
2023/01/06 01:19:54;;;;;;;3.60;1.65;;;;;;;4.44;99.74;98410.50;1751326;81;21061;-76
2023/01/06 01:22:22;;;;;;;5.45;2.10;;;;;;;4.45;99.98;98408.14;1751876;81;27127;-76
2023/01/06 01:24:49;;;;;;;7.87;2.03;;;;;;;4.45;100.00;98413.51;1751654;81;21003;-76
2023/01/06 01:27:16;;;;;;;4.55;2.05;;;;;;;4.45;100.00;98414.85;1751585;81;21006;-80
2023/01/06 01:29:43;;;;;;;4.65;2.83;;;;;;;4.44;100.00;98419.41;1751432;81;21062;-76
2023/01/06 01:32:10;;;;;;;2.08;1.32;;;;;;;4.44;99.82;98414.53;1751749;81;21586;-76
2023/01/06 01:34:37;;;;;;;8.08;4.60;;;;;;;4.41;98.75;98414.48;1751456;81;21077;-76
2023/01/06 01:37:03;;;;;;;3.65;1.92;;;;;;;4.38;99.11;98412.79;1751792;81;21882;-76
2023/01/06 01:39:30;;;;;;;7.03;4.40;;;;;;;4.33;98.17;98413.47;1751411;81;21057;-76
2023/01/06 01:41:58;;;;;;;6.28;3.33;;;;;;;4.33;98.15;98421.52;1751395;81;20993;-78
2023/01/06 01:44:56;;;;;;;4.35;2.72;;;;;;;4.32;98.32;98421.75;1751550;81;21001;-76
2023/01/06 01:47:46;;;;;;;3.40;1.37;;;;;;;4.29;98.39;98425.72;1751961;81;21013;-76
2023/01/06 01:50:21;;;;;;;4.85;2.12;;;;;;;4.23;97.85;98427.44;1750706;81;21091;-78
2023/01/06 01:52:51;;;;;;;4.40;2.20;;;;;;;4.22;98.04;98430.36;1750533;81;21588;-76
2023/01/06 01:55:18;;;;;;;5.30;2.33;;;;;;;4.16;96.40;98432.60;1761838;81;21000;-78
2023/01/06 01:57:52;;;;;;;4.10;1.90;;;;;;;4.16;97.32;98439.31;1751612;81;21013;-78
2023/01/06 02:00:19;;;;;;;2.75;1.98;;;;;;;4.16;97.72;98436.63;1751758;81;21062;-76
2023/01/06 02:02:46;;;;;;;3.70;1.52;;;;;;;4.13;96.66;98439.25;1751534;81;21574;-78
2023/01/06 02:05:16;;;;;;;4.05;1.65;;;;;;;4.09;96.34;98447.44;1751625;81;21054;-77
2023/01/06 02:07:43;;;;;;;2.90;2.10;;;;;;;4.08;96.43;98446.33;1751672;81;21065;-76
2023/01/06 02:10:17;;;;;;;3.85;1.12;;;;;;;4.01;95.84;98457.66;1751684;81;21080;-78
2023/01/06 02:12:45;;;;;;;2.90;1.30;;;;;;;4.01;96.14;98456.33;1751441;81;21277;-76
2023/01/06 02:15:20;;;;;;;3.95;1.90;;;;;;;3.99;96.52;98468.63;1751899;81;21128;-76
2023/01/06 02:18:25;;;;;;;4.15;2.10;;;;;;;3.87;94.40;98469.92;1750710;81;21605;-78
2023/01/06 02:21:33;;;;;;;4.20;2.60;;;;;;;3.89;95.82;98474.53;1751599;81;21004;-78
2023/01/06 02:24:09;;;;;;;4.53;1.50;;;;;;;3.89;96.14;98468.34;1750415;81;21462;-78
2023/01/06 02:27:06;;;;;;;2.45;1.52;;;;;;;3.89;96.44;98469.69;1750358;81;21056;-75
2023/01/06 02:29:47;;;;;;;5.03;1.72;;;;;;;3.84;95.34;98473.03;1751503;81;21018;-79
2023/01/06 02:32:38;;;;;;;3.08;1.98;;;;;;;3.85;96.22;98474.70;1751615;81;21743;-76
2023/01/06 02:35:41;;;;;;;4.03;1.65;;;;;;;3.76;95.58;98474.70;1751777;81;21487;-78
2023/01/06 02:38:29;;;;;;;5.47;1.95;;;;;;;3.79;96.43;98475.59;1751302;81;21065;-76
2023/01/06 02:41:11;;;;;;;4.50;1.98;;;;;;;3.67;95.49;98475.53;1751208;81;21497;-76
2023/01/06 02:43:48;;;;;;;7.30;4.00;;;;;;;3.65;95.82;98473.57;1751758;81;21608;-79
2023/01/06 02:46:27;;;;;;;9.98;7.17;;;;;;;3.58;96.50;98475.50;1751679;81;21010;-78
2023/01/06 02:49:17;;;;;;;3.77;2.80;;;;;;;3.61;96.48;98475.59;1751139;81;21509;-76
2023/01/06 02:52:13;;;;;;;8.58;6.50;;;;;;;3.55;96.14;98479.16;1750305;81;21007;-78
2023/01/06 02:55:04;;;;;;;6.33;3.60;;;;;;;3.52;96.53;98476.94;1756508;81;21052;-78
2023/01/06 02:57:50;;;;;;;4.20;2.47;;;;;;;3.44;96.79;98472.69;1731219;82;21616;-78
2023/01/06 03:00:34;;;;;;;3.98;1.77;;;;;;;3.46;96.92;98473.80;1703436;82;21011;-76
2023/01/06 03:03:08;;;;;;;3.27;1.77;;;;;;;3.40;96.85;98476.84;1731344;82;21502;-76
2023/01/06 03:05:35;;;;;;;2.92;1.60;;;;;;;3.39;97.42;98480.05;1731161;82;20995;-76
2023/01/06 03:08:07;;;;;;;3.37;2.17;;;;;;;3.38;97.62;98480.27;1731236;82;21078;-76
2023/01/06 03:10:34;;;;;;;5.37;2.55;;;;;;;3.35;97.73;98474.84;1731096;82;21519;-76
2023/01/06 03:13:22;;;;;;;3.75;2.02;;;;;;;3.35;97.63;98486.90;1731157;82;21023;-78
2023/01/06 03:15:48;;;;;;;5.20;2.30;;;;;;;3.33;97.83;98489.48;1731231;82;20999;-76
2023/01/06 03:18:16;;;;;;;3.62;1.90;;;;;;;3.36;98.21;98483.17;1731001;82;21429;-78
2023/01/06 03:20:43;;;;;;;3.37;2.37;;;;;;;3.37;98.52;98494.71;1731271;82;21002;-78
2023/01/06 03:23:11;;;;;;;4.87;2.30;;;;;;;3.38;98.46;98493.14;1731193;82;21875;-76
2023/01/06 03:25:38;;;;;;;11.55;3.22;;;;;;;3.38;98.62;98483.77;1702357;82;21499;-76
2023/01/06 03:28:05;;;;;;;8.18;3.58;;;;;;;3.39;98.82;98483.24;1731166;82;21026;-76
2023/01/06 03:30:42;;;;;;;6.70;3.60;;;;;;;3.40;98.71;98484.87;1731151;82;21253;-78
2023/01/06 03:33:42;;;;;;;7.53;2.60;;;;;;;3.41;98.65;98490.53;1731126;82;21093;-78
2023/01/06 03:36:41;;;;;;;6.00;2.33;;;;;;;3.42;98.91;98480.62;1731182;82;21054;-78
2023/01/06 03:39:21;;;;;;;11.88;6.12;;;;;;;3.44;98.89;98482.07;1730790;82;21439;-76
2023/01/06 03:45:53;;;;;;;4.25;2.90;;;;;;;3.35;99.11;98488.77;1731131;82;21011;-78
2023/01/06 03:49:02;;;;;;;11.75;7.97;;;;;;;3.32;99.31;98485.98;1728018;82;21038;-76
2023/01/06 03:51:59;;;;;;;9.43;6.47;;;;;;;3.35;99.16;98479.39;1731104;82;21194;-76
2023/01/06 03:54:40;;;;;;;9.20;6.90;;;;;;;3.38;99.27;98477.59;1751400;81;21435;-76
2023/01/06 03:57:17;;;;;;;16.90;12.82;;;;;;;3.37;99.17;98488.02;1760599;81;21576;-76
2023/01/06 03:59:57;;;;;;;6.37;5.53;;;;;;;3.38;99.43;98491.80;1761112;81;21027;-76
2023/01/06 04:02:24;;;;;;;7.50;4.67;;;;;;;3.39;99.22;98485.40;1761112;81;21070;-77
2023/01/06 04:05:13;;;;;;;7.15;5.40;;;;;;;3.45;99.22;98494.94;1761141;81;21118;-78
2023/01/06 04:07:40;;;;;;;8.03;4.55;;;;;;;3.45;99.18;98497.10;1761224;81;21015;-76
2023/01/06 04:10:08;;;;;;;3.85;2.33;;;;;;;3.47;99.24;98497.69;1761371;81;21003;-78
2023/01/06 04:12:37;;;;;;;6.10;3.77;;;;;;;3.46;98.98;98493.90;1730910;81;21015;-76
2023/01/06 04:15:20;;;;;;;6.33;2.62;;;;;;;3.46;98.93;98490.70;1761447;81;21018;-78
2023/01/06 04:17:47;;;;;;;7.67;2.42;;;;;;;3.50;99.12;98494.55;1761220;81;21168;-76
2023/01/06 04:20:21;;;;;;;4.80;2.65;;;;;;;3.52;99.15;98491.16;1761419;81;21151;-76
2023/01/06 04:22:48;;;;;;;5.03;2.55;;;;;;;3.53;99.16;98487.44;1761239;81;21126;-78
2023/01/06 04:25:15;;;;;;;4.10;2.60;;;;;;;3.56;99.14;98495.53;1761092;81;21551;-76
2023/01/06 04:27:42;;;;;;;6.30;4.22;;;;;;;3.56;99.18;98500.89;1761232;81;21035;-76
2023/01/06 04:30:10;;;;;;;7.10;3.62;;;;;;;3.53;99.07;98504.84;1761567;81;21535;-76
2023/01/06 04:32:37;;;;;;;7.37;5.03;;;;;;;3.55;99.08;98505.96;1761279;81;21443;-78
2023/01/06 04:35:05;;;;;;;6.33;4.40;;;;;;;3.56;99.19;98501.71;1761497;81;21023;-78
2023/01/06 04:37:32;;;;;;;5.33;2.98;;;;;;;3.55;99.33;98505.44;1761183;81;21070;-78
2023/01/06 04:39:59;;;;;;;4.97;3.25;;;;;;;3.53;99.14;98507.53;1761385;81;21007;-76
2023/01/06 04:42:26;;;;;;;6.78;3.10;;;;;;;3.52;98.93;98515.80;1761025;81;21754;-77
2023/01/06 04:44:53;;;;;;;10.32;4.80;;;;;;;3.50;99.07;98513.84;1761296;81;21027;-78
2023/01/06 04:47:20;;;;;;;8.33;3.83;;;;;;;3.45;98.79;98515.86;1761066;81;21494;-76
2023/01/06 04:49:47;;;;;;;7.95;3.67;;;;;;;3.45;98.99;98517.20;1761068;81;21055;-78
2023/01/06 04:52:15;;;;;;;9.23;4.20;;;;;;;3.42;99.11;98516.31;1761152;81;21015;-78
2023/01/06 04:54:42;;;;;;;9.58;4.78;;;;;;;3.43;99.14;98519.28;1737237;81;21767;-78
2023/01/06 04:57:08;;;;;;;11.48;4.25;;;;;;;3.39;99.48;98518.89;1757203;81;21000;-78
2023/01/06 04:59:35;;;;;;;7.90;3.25;;;;;;;3.42;99.22;98527.03;1761135;81;21007;-76
2023/01/06 05:02:02;;;;;;;6.67;2.50;;;;;;;3.45;99.25;98531.94;1761186;81;21006;-78
2023/01/06 05:04:29;;;;;;;4.90;2.60;;;;;;;3.48;99.29;98532.00;1761347;81;21000;-76
2023/01/06 05:06:56;;;;;;;10.53;3.95;;;;;;;3.52;99.40;98535.37;1761220;81;21206;-76
2023/01/06 05:09:23;;;;;;;5.00;3.50;;;;;;;3.51;99.42;98540.44;1761031;81;21003;-78
2023/01/06 05:11:50;;;;;;;28.02;20.15;;;;;;;3.52;99.41;98543.41;1761281;81;21448;-76
2023/01/06 05:14:17;;;;;;;14.65;9.00;;;;;;;3.50;99.28;98540.11;1761175;81;21059;-78
2023/01/06 05:16:44;;;;;;;7.28;3.58;;;;;;;3.40;99.18;98538.46;1761224;81;21003;-78
2023/01/06 05:19:11;;;;;;;7.97;3.15;;;;;;;3.39;99.01;98538.98;1761273;81;21917;-76
2023/01/06 05:21:37;;;;;;;3.40;2.15;;;;;;;3.40;99.27;98542.48;1761271;81;21054;-78
2023/01/06 05:24:05;;;;;;;9.90;2.98;;;;;;;3.32;98.86;98548.12;1761194;81;20984;-76
2023/01/06 05:26:32;;;;;;;8.80;4.30;;;;;;;3.27;99.07;98550.13;1761057;81;21055;-78
2023/01/06 05:28:59;;;;;;;6.55;3.62;;;;;;;3.30;99.02;98546.19;1761404;81;20983;-76
2023/01/06 05:31:25;;;;;;;5.22;3.17;;;;;;;3.29;99.21;98546.70;1761257;81;21474;-76
2023/01/06 05:33:52;;;;;;;8.00;3.33;;;;;;;3.20;98.90;98549.89;1761304;81;20983;-78
2023/01/06 05:36:19;;;;;;;5.12;3.17;;;;;;;3.15;99.20;98541.16;1761395;81;21550;-76
2023/01/06 05:38:53;;;;;;;5.53;2.70;;;;;;;3.19;99.22;98550.93;1761322;81;21059;-76
2023/01/06 05:41:20;;;;;;;6.37;2.83;;;;;;;3.18;99.30;98543.41;1731236;81;21154;-76
2023/01/06 05:43:47;;;;;;;6.47;2.62;;;;;;;3.21;99.54;98548.32;1761212;81;21069;-78
2023/01/06 05:46:13;;;;;;;6.78;2.83;;;;;;;3.21;99.37;98549.66;1761105;81;21452;-78
2023/01/06 05:48:41;;;;;;;4.45;2.85;;;;;;;3.15;99.39;98553.73;1761154;81;21017;-78
2023/01/06 05:51:11;;;;;;;12.30;4.60;;;;;;;3.21;99.60;98560.89;1761092;81;21019;-78
2023/01/06 05:53:40;;;;;;;17.50;7.90;;;;;;;3.18;99.50;98554.13;1750622;81;21035;-78
2023/01/06 05:56:08;;;;;;;;;;;;;;;3.14;99.75;98554.77;1733641;82;21082;-78
2023/01/06 05:58:35;;;;;;;15.78;5.17;;;;;;;3.18;99.75;98567.52;1730925;82;20207;-78
2023/01/06 06:01:03;;;;;;;26.95;9.93;;;;;;;3.14;99.85;98569.50;1731094;82;21094;-78
2023/01/06 06:03:30;;;;;;;35.20;11.08;;;;;;;3.15;99.83;98567.94;1730874;82;21047;-79
2023/01/06 06:06:05;;;;;;;28.55;12.15;;;;;;;3.15;100.00;98568.45;1731193;82;21098;-78
2023/01/06 06:08:32;;;;;;;18.82;9.70;;;;;;;3.14;100.00;98572.17;1730799;82;21011;-76
2023/01/06 06:11:07;;;;;;;14.95;5.92;;;;;;;3.09;100.00;98574.19;1731295;82;21447;-78
2023/01/06 06:13:34;;;;;;;9.95;5.90;;;;;;;3.04;100.00;98579.36;1730957;82;21022;-76
2023/01/06 06:16:10;;;;;;;13.83;7.78;;;;;;;3.01;100.00;98585.98;1731128;82;21456;-78
2023/01/06 06:18:42;;;;;;;14.83;10.43;;;;;;;2.96;100.00;98582.30;1731075;82;21125;-76
2023/01/06 06:21:06;;;;;;;117.80;51.60;;;;;;;2.97;100.00;98590.63;1729290;82;21019;-78
2023/01/06 06:23:33;;;;;;;95.57;56.73;;;;;;;2.96;100.00;98585.80;1730722;82;21550;-78
2023/01/06 06:26:00;;;;;;;68.28;60.15;;;;;;;2.97;100.00;98590.63;1731144;82;21035;-76
2023/01/06 06:28:30;;;;;;;41.30;35.40;;;;;;;2.92;100.00;98592.64;1730829;82;20968;-78
2023/01/06 06:31:07;;;;;;;26.27;18.90;;;;;;;2.88;100.00;98596.77;1731091;82;21015;-76
2023/01/06 06:33:34;;;;;;;83.45;60.95;;;;;;;2.91;100.00;98597.70;1748435;82;21514;-76
2023/01/06 06:36:02;;;;;;;10.48;8.33;;;;;;;2.91;100.00;98598.22;1731135;82;21055;-76
2023/01/06 06:38:29;;;;;;;18.05;13.30;;;;;;;2.90;100.00;98596.55;1730823;82;21487;-76
2023/01/06 06:40:56;;;;;;;16.57;14.78;;;;;;;2.92;100.00;98595.31;1731085;82;21006;-77
2023/01/06 06:43:24;;;;;;;10.78;9.70;;;;;;;2.88;100.00;98600.78;1701505;82;40050;-76
2023/01/06 06:45:50;;;;;;;12.00;8.13;;;;;;;2.88;100.00;98595.95;1731285;82;21583;-76
2023/01/06 06:48:18;;;;;;;37.88;26.05;;;;;;;2.89;100.00;98600.27;1730991;82;21063;-76
2023/01/06 06:50:44;;;;;;;45.85;22.50;;;;;;;2.88;100.00;98597.29;1731374;82;21393;-78
2023/01/06 06:53:11;;;;;;;28.67;19.57;;;;;;;2.91;100.00;98598.22;1735418;81;21276;-76
2023/01/06 06:55:38;;;;;;;54.80;46.40;;;;;;;2.94;100.00;98604.47;1747669;81;21485;-78
2023/01/06 06:58:05;;;;;;;29.02;25.17;;;;;;;2.94;100.00;98607.14;1752164;81;20999;-76
2023/01/06 07:00:32;;;;;;;13.30;8.95;;;;;;;2.91;100.00;98609.74;1752286;81;20978;-78
2023/01/06 07:02:59;;;;;;;57.98;52.35;;;;;;;2.94;100.00;98609.30;1772728;80;21004;-76
2023/01/06 07:05:26;;;;;;;24.92;22.40;;;;;;;3.00;100.00;98612.46;1772924;80;21032;-75
2023/01/06 07:07:53;;;;;;;37.05;31.15;;;;;;;3.04;100.00;98618.19;1772688;80;21007;-78
2023/01/06 07:10:20;;;;;;;18.45;16.85;;;;;;;3.05;99.90;98621.98;1773119;80;21461;-78
2023/01/06 07:12:47;;;;;;;47.08;42.80;;;;;;;3.06;99.72;98625.48;1772578;80;21036;-78
2023/01/06 07:15:14;;;;;;;32.13;29.15;;;;;;;3.00;99.55;98627.19;1772886;80;21055;-76
2023/01/06 07:17:41;;;;;;;36.93;33.02;;;;;;;3.04;99.80;98625.70;1772748;80;21055;-78
2023/01/06 07:20:09;;;;;;;29.27;26.27;;;;;;;3.05;99.88;98625.18;1772951;80;21039;-78
2023/01/06 07:22:37;;;;;;;20.90;18.40;;;;;;;3.08;99.83;98620.23;1772740;81;21450;-76
2023/01/06 07:25:06;;;;;;;12.55;9.70;;;;;;;3.12;99.73;98621.94;1773015;80;21000;-77
2023/01/06 07:27:33;;;;;;;;;;;;;;;3.21;99.91;98633.21;1775281;81;21058;-76
2023/01/06 07:30:01;;;;;;;30.08;19.30;;;;;;;3.24;99.82;98633.59;1772855;80;20180;-76
2023/01/06 07:32:28;;;;;;;21.77;16.00;;;;;;;3.28;99.72;98640.69;1772766;80;20991;-78
2023/01/06 07:34:55;;;;;;;8.93;7.10;;;;;;;3.32;99.71;98641.36;1772906;80;21887;-78
2023/01/06 07:37:22;;;;;;;20.45;18.32;;;;;;;3.28;98.05;98644.70;1772713;80;20976;-78
2023/01/06 07:39:49;;;;;;;15.55;11.53;;;;;;;3.24;97.84;98640.28;1772564;80;21008;-78
2023/01/06 07:42:15;;;;;;;9.00;7.85;;;;;;;3.24;97.68;98647.50;1772834;80;20989;-78
2023/01/06 07:44:42;;;;;;;22.77;17.85;;;;;;;3.29;98.26;98640.98;1772548;80;20996;-76
2023/01/06 07:47:09;;;;;;;27.62;22.87;;;;;;;3.31;98.31;98641.05;1772883;80;21033;-76
2023/01/06 07:49:36;;;;;;;19.35;14.73;;;;;;;3.33;98.26;98639.50;1772533;80;21003;-76
2023/01/06 07:52:03;;;;;;;14.68;11.88;;;;;;;3.35;98.10;98636.10;1772729;80;21087;-76
2023/01/06 07:54:30;;;;;;;26.85;18.98;;;;;;;3.36;98.39;98635.06;1748667;80;21058;-78
2023/01/06 07:56:57;;;;;;;97.60;60.20;;;;;;;3.41;98.60;98636.55;1763112;81;21431;-78
2023/01/06 07:59:24;;;;;;;92.02;56.53;;;;;;;3.43;97.83;98636.36;1779905;80;21177;-76
2023/01/06 08:01:51;;;;;;;85.17;49.18;;;;;;;3.45;97.94;98639.63;1780188;80;21499;-76
2023/01/06 08:04:18;;;;;;;102.27;66.02;;;;;;;3.47;97.82;98642.91;1761170;81;20996;-78
2023/01/06 08:06:45;;;;;;;54.67;38.63;;;;;;;3.48;97.67;98645.88;1761338;81;21007;-78
2023/01/06 08:09:12;;;;;;;61.70;48.25;;;;;;;3.54;98.30;98650.38;1761218;81;21003;-76
2023/01/06 08:11:39;;;;;;;24.90;20.85;;;;;;;3.59;98.51;98654.05;1761488;81;21087;-76
2023/01/06 08:14:06;;;;;;;9.23;6.53;;;;;;;3.66;98.71;98656.12;1761111;81;21511;-78
2023/01/06 08:16:33;;;;;;;9.38;6.47;;;;;;;3.70;97.93;98651.69;1761429;81;20987;-76
2023/01/06 08:19:00;;;;;;;13.05;9.23;;;;;;;3.73;97.85;98664.64;1761213;81;21463;-78
2023/01/06 08:21:27;;;;;;;24.40;13.25;;;;;;;3.77;97.88;98661.31;1731104;81;21031;-76
2023/01/06 08:23:54;;;;;;;22.65;14.85;;;;;;;3.72;96.62;98665.68;1761212;81;21829;-78
2023/01/06 08:26:20;;;;;;;20.82;14.65;;;;;;;3.73;97.28;98665.45;1761234;81;20979;-78
2023/01/06 08:28:47;;;;;;;21.68;14.58;;;;;;;3.72;96.29;98653.62;1730957;81;22028;-78
2023/01/06 08:31:17;;;;;;;9.55;6.70;;;;;;;3.76;96.69;98658.33;1761165;81;21003;-78
2023/01/06 08:33:44;;;;;;;10.90;7.53;;;;;;;3.80;96.79;98657.36;1761217;81;21542;-75
2023/01/06 08:36:15;;;;;;;45.78;23.55;;;;;;;3.81;97.29;98671.06;1761017;81;21011;-78
2023/01/06 08:38:42;;;;;;;26.52;19.02;;;;;;;3.76;96.91;98671.73;1761126;81;22134;-76
2023/01/06 08:41:09;;;;;;;18.40;15.18;;;;;;;3.65;96.30;98673.25;1761024;81;21006;-76
2023/01/06 08:43:37;;;;;;;21.15;13.00;;;;;;;3.59;96.32;98668.78;1761063;81;21471;-76
2023/01/06 08:46:06;;;;;;;18.82;12.20;;;;;;;3.61;96.86;98669.91;1761234;81;21471;-78
2023/01/06 08:48:34;;;;;;;15.05;10.35;;;;;;;3.58;96.76;98675.68;1761441;81;21112;-76
2023/01/06 08:51:11;;;;;;;27.67;18.63;;;;;;;3.50;96.33;98670.59;1761113;81;21063;-78
2023/01/06 08:53:38;;;;;;;33.02;22.70;;;;;;;3.57;97.02;98668.68;1750645;81;21035;-78
2023/01/06 08:56:20;;;;;;;83.27;59.40;;;;;;;3.49;96.96;98668.43;1743887;81;20999;-76
2023/01/06 08:58:56;;;;;;;80.30;49.65;;;;;;;3.54;97.14;98675.31;1761254;81;21007;-76
2023/01/06 09:01:27;;;;;;;74.75;50.63;;;;;;;3.52;97.58;98682.75;1731925;81;21115;-78
2023/01/06 09:03:54;;;;;;;81.30;44.18;;;;;;;3.55;97.58;98675.61;1761268;81;21046;-78
2023/01/06 09:06:21;;;;;;;83.35;60.05;;;;;;;3.58;97.50;98679.18;1761013;81;21063;-76
2023/01/06 09:08:48;;;;;;;76.47;56.08;;;;;;;3.57;97.50;98677.54;1761168;81;21467;-76
2023/01/06 09:11:16;;;;;;;74.05;60.98;;;;;;;3.66;97.71;98684.78;1761142;81;21058;-76
2023/01/06 09:13:43;;;;;;;70.70;45.10;;;;;;;3.63;97.47;98682.03;1761117;81;21633;-77
2023/01/06 09:16:10;;;;;;;119.08;79.25;;;;;;;3.64;97.46;98682.33;1760988;81;21058;-76
2023/01/06 09:18:37;;;;;;;44.25;27.25;;;;;;;3.70;97.32;98672.61;1761178;81;21016;-79
2023/01/06 09:21:04;;;;;;;25.35;19.15;;;;;;;3.84;97.59;98679.99;1761044;81;21467;-76
2023/01/06 09:23:31;;;;;;;30.15;18.90;;;;;;;3.90;97.00;98671.08;1761241;81;21019;-78
2023/01/06 09:25:58;;;;;;;32.83;27.27;;;;;;;3.90;97.44;98665.19;1761091;81;21494;-76
2023/01/06 09:28:25;;;;;;;15.20;9.80;;;;;;;3.98;97.19;98667.30;1761004;81;21000;-78
2023/01/06 09:30:52;;;;;;;12.37;9.05;;;;;;;4.04;97.39;98663.73;1761229;81;21508;-76
2023/01/06 09:33:19;;;;;;;16.65;8.80;;;;;;;4.07;97.43;98654.71;1761242;81;21019;-76
2023/01/06 09:35:46;;;;;;;41.13;16.32;;;;;;;4.06;97.05;98651.73;1761119;81;21027;-76
2023/01/06 09:38:13;;;;;;;15.63;7.72;;;;;;;4.04;95.83;98647.13;1761280;81;21036;-78
2023/01/06 09:41:15;;;;;;;16.12;8.58;;;;;;;4.09;96.48;98642.41;1761129;81;21062;-78
2023/01/06 09:43:55;;;;;;;13.25;7.17;;;;;;;4.13;96.47;98640.94;1761315;81;21011;-78
2023/01/06 09:46:29;;;;;;;14.45;7.70;;;;;;;4.13;95.41;98639.60;1732137;81;21063;-78
2023/01/06 09:49:10;;;;;;;9.25;4.87;;;;;;;4.22;95.90;98632.89;1761222;81;21079;-76
2023/01/06 09:51:38;;;;;;;13.83;7.50;;;;;;;4.20;95.25;98619.70;1760454;81;22050;-78
2023/01/06 09:54:18;;;;;;;8.68;4.92;;;;;;;4.21;94.84;98616.50;1745118;81;21059;-76
2023/01/06 09:56:50;;;;;;;7.90;3.67;;;;;;;4.36;96.15;98608.90;1752237;81;21074;-76
2023/01/06 09:59:49;;;;;;;8.83;3.45;;;;;;;4.29;94.23;98610.84;1761036;81;20996;-76
2023/01/06 10:02:21;;;;;;;10.53;3.77;;;;;;;4.33;95.34;98612.02;1760951;81;21059;-78
2023/01/06 10:04:49;;;;;;;6.42;4.03;;;;;;;4.40;96.07;98605.23;1760988;81;21066;-76
2023/01/06 10:07:33;;;;;;;8.25;5.55;;;;;;;4.40;94.90;98599.34;1761283;81;21028;-78
2023/01/06 10:10:24;;;;;;;10.70;5.03;;;;;;;4.48;96.09;98599.55;1761323;81;21079;-76
2023/01/06 10:13:09;;;;;;;7.28;4.83;;;;;;;4.52;96.40;98593.49;1760924;81;21016;-78
2023/01/06 10:15:53;;;;;;;7.62;4.60;;;;;;;4.45;95.03;98600.02;1757366;81;21607;-75
2023/01/06 10:18:49;;;;;;;10.72;3.95;;;;;;;4.42;94.89;98602.61;1760602;81;20996;-76
2023/01/06 10:21:55;;;;;;;10.23;4.70;;;;;;;4.46;94.46;98594.94;1760589;81;20991;-78
2023/01/06 10:24:54;;;;;;;8.83;5.70;;;;;;;4.58;94.96;98588.27;1760740;81;21066;-78
2023/01/06 10:27:40;;;;;;;19.37;9.00;;;;;;;4.52;94.93;98580.59;1758053;81;21066;-78
2023/01/06 10:30:21;;;;;;;9.13;6.35;;;;;;;4.63;94.48;98579.84;1751351;81;21442;-78
2023/01/06 10:32:49;;;;;;;14.83;5.42;;;;;;;4.59;93.79;98564.41;1751643;81;21112;-78
2023/01/06 10:35:21;;;;;;;10.65;6.05;;;;;;;4.79;94.44;98563.09;1751254;81;21045;-78
2023/01/06 10:37:49;;;;;;;;;;;;;;;4.94;95.14;98557.80;1726407;81;21625;-76
2023/01/06 10:40:26;;;;;;;6.78;4.60;;;;;;;5.00;95.10;98557.70;1751499;81;20232;-76
2023/01/06 10:43:04;;;;;;;8.45;5.03;;;;;;;5.13;95.52;98558.53;1751716;81;21605;-76
2023/01/06 10:45:44;;;;;;;10.95;5.35;;;;;;;5.13;92.73;98557.19;1751544;81;20990;-76
2023/01/06 10:48:26;;;;;;;14.45;9.80;;;;;;;5.11;92.00;98554.73;1751678;81;20995;-76
2023/01/06 10:50:53;;;;;;;10.70;6.33;;;;;;;5.28;93.60;98539.58;1751623;81;21013;-76
2023/01/06 10:53:20;;;;;;;12.63;7.15;;;;;;;5.46;93.97;98537.30;1754140;81;21025;-76
2023/01/06 10:55:58;;;;;;;8.35;5.45;;;;;;;5.55;94.07;98543.14;1759591;81;21017;-78
2023/01/06 10:58:56;;;;;;;10.28;6.53;;;;;;;5.61;92.75;98540.86;1751714;81;21062;-76
2023/01/06 11:01:25;;;;;;;14.58;9.85;;;;;;;5.63;92.21;98529.34;1757330;81;21076;-78
2023/01/06 11:04:07;;;;;;;;;;;;;;;5.72;92.28;98527.92;1748434;82;21041;-78
2023/01/06 11:06:35;;;;;;;9.78;4.28;;;;;;;5.85;92.79;98528.22;1768574;81;20213;-78
2023/01/06 11:09:40;;;;;;;9.23;5.40;;;;;;;5.96;93.10;98523.89;1745789;82;20989;-78
2023/01/06 11:12:30;;;;;;;9.98;4.75;;;;;;;6.01;93.17;98521.31;1702619;83;21037;-78
2023/01/06 11:14:59;;;;;;;21.17;7.92;;;;;;;6.12;92.44;98517.23;1761004;81;20988;-76
2023/01/06 11:17:27;;;;;;;29.55;22.82;;;;;;;6.10;91.93;98513.98;1768842;81;21444;-78
2023/01/06 11:20:15;;;;;;;22.15;12.30;;;;;;;6.10;91.40;98519.89;1768750;81;21087;-78
2023/01/06 11:22:42;;;;;;;12.80;6.60;;;;;;;6.09;91.19;98523.11;1768512;81;20988;-76
2023/01/06 11:25:29;;;;;;;45.08;20.15;;;;;;;6.06;92.19;98520.06;1768645;81;21899;-77
2023/01/06 11:28:19;;;;;;;18.50;10.88;;;;;;;6.14;91.66;98521.03;1767421;81;20988;-78
2023/01/06 11:30:54;;;;;;;85.77;29.18;;;;;;;6.06;91.36;98506.08;1768699;81;21032;-78
2023/01/06 11:33:26;;;;;;;27.48;12.37;;;;;;;6.09;91.37;98507.49;1768663;81;21072;-78
2023/01/06 11:35:53;;;;;;;54.85;31.33;;;;;;;6.07;90.78;98498.32;1768566;81;21470;-78
2023/01/06 11:38:21;;;;;;;15.63;9.55;;;;;;;6.02;91.25;98504.12;1745550;82;21067;-78
2023/01/06 11:40:51;;;;;;;20.70;14.78;;;;;;;6.10;90.82;98498.36;1768502;81;21425;-76
2023/01/06 11:43:24;;;;;;;23.07;12.95;;;;;;;6.08;90.70;98496.45;1768625;81;21058;-78
2023/01/06 11:45:57;;;;;;;25.57;19.50;;;;;;;6.10;91.35;98497.02;1745855;82;21508;-76
2023/01/06 11:48:35;;;;;;;43.65;35.58;;;;;;;6.13;90.49;98491.14;1767837;81;21547;-76
2023/01/06 11:51:04;;;;;;;21.20;14.05;;;;;;;6.14;91.45;98498.16;1768743;81;21771;-76
2023/01/06 11:53:33;;;;;;;14.33;8.95;;;;;;;6.26;91.70;98501.64;1766012;81;27160;-76
2023/01/06 11:56:06;;;;;;;15.18;7.25;;;;;;;6.35;91.53;98494.81;1760258;81;21021;-78
2023/01/06 11:58:56;;;;;;;18.62;12.03;;;;;;;6.36;89.65;98510.44;1749215;82;21011;-78
2023/01/06 12:01:51;;;;;;;12.60;6.72;;;;;;;6.35;89.85;98522.27;1748587;82;21554;-76
2023/01/06 12:04:35;;;;;;;19.60;12.10;;;;;;;6.39;90.58;98521.53;1730698;82;21015;-75